createdAt,value
2019-01-06T00:00:47.037Z,424.77
2019-01-06T00:01:46.514Z,421.51
2019-01-06T00:02:46.434Z,421.55
2019-01-06T00:03:46.447Z,424.68
2019-01-06T00:04:46.467Z,423.35
2019-01-06T00:05:46.408Z,423.29
2019-01-06T00:06:46.402Z,422.43
2019-01-06T00:07:46.408Z,423.49
2019-01-06T00:08:46.373Z,423.32
2019-01-06T00:09:46.372Z,423.97
2019-01-06T00:10:46.456Z,423.71
2019-01-06T00:11:46.345Z,423.31
2019-01-06T00:12:46.392Z,423.89
2019-01-06T00:13:46.398Z,423.06
2019-01-06T00:14:46.307Z,422.76
2019-01-06T00:15:46.313Z,423.18
2019-01-06T00:16:46.301Z,422.37
2019-01-06T00:17:46.289Z,425.10
2019-01-06T00:18:46.264Z,423.17
2019-01-06T00:19:46.255Z,422.80
2019-01-06T00:20:46.266Z,424.61
2019-01-06T00:21:46.259Z,423.28
2019-01-06T00:22:46.228Z,425.43
2019-01-06T00:23:46.285Z,425.56
2019-01-06T00:24:46.218Z,426.79
2019-01-06T00:25:46.224Z,424.90
2019-01-06T00:26:46.227Z,425.94
2019-01-06T00:27:46.215Z,424.82
2019-01-06T00:28:46.173Z,423.39
2019-01-06T00:29:46.145Z,423.39
2019-01-06T00:30:46.156Z,426.71
2019-01-06T00:31:46.129Z,423.17
2019-01-06T00:32:46.130Z,425.64
2019-01-06T00:33:46.167Z,425.46
2019-01-06T00:34:46.106Z,424.21
2019-01-06T00:35:46.083Z,425.99
2019-01-06T00:36:46.123Z,424.67
2019-01-06T00:37:46.076Z,426.66
2019-01-06T00:38:46.085Z,425.23
2019-01-06T00:39:46.072Z,426.21
2019-01-06T00:40:46.034Z,425.58
2019-01-06T00:41:46.023Z,425.45
2019-01-06T00:42:46.023Z,426.01
2019-01-06T00:43:46.006Z,425.08
2019-01-06T00:44:46.036Z,425.90
2019-01-06T00:45:45.994Z,424.22
2019-01-06T00:46:46.007Z,423.94
2019-01-06T00:47:45.962Z,426.81
2019-01-06T00:48:45.970Z,425.10
2019-01-06T00:49:45.994Z,426.18
2019-01-06T00:50:45.961Z,425.09
2019-01-06T00:51:45.919Z,426.04
2019-01-06T00:52:45.901Z,426.40
2019-01-06T00:53:45.910Z,424.57
2019-01-06T00:54:45.895Z,426.13
2019-01-06T00:55:45.890Z,425.51
2019-01-06T00:56:45.894Z,423.80
2019-01-06T00:57:45.854Z,424.12
2019-01-06T00:58:45.848Z,424.68
2019-01-06T00:59:45.877Z,425.60
2019-01-06T01:00:45.865Z,424.97
2019-01-06T01:01:45.819Z,426.10
2019-01-06T01:02:45.808Z,425.36
2019-01-06T01:03:45.843Z,425.66
2019-01-06T01:04:45.793Z,424.75
2019-01-06T01:05:45.798Z,424.43
2019-01-06T01:06:45.794Z,424.50
2019-01-06T01:07:45.766Z,426.68
2019-01-06T01:08:45.744Z,423.58
2019-01-06T01:09:45.757Z,426.78
2019-01-06T01:10:45.739Z,426.50
2019-01-06T01:11:45.737Z,425.00
2019-01-06T01:12:45.713Z,424.20
2019-01-06T01:13:45.705Z,426.53
2019-01-06T01:14:45.681Z,424.56
2019-01-06T01:15:45.673Z,424.21
2019-01-06T01:16:45.686Z,424.47
2019-01-06T01:17:45.661Z,425.50
2019-01-06T01:18:45.639Z,425.61
2019-01-06T01:19:45.664Z,424.23
2019-01-06T01:20:45.612Z,422.07
2019-01-06T01:21:45.655Z,424.27
2019-01-06T01:22:45.607Z,424.91
2019-01-06T01:23:45.589Z,422.85
2019-01-06T01:24:45.572Z,423.00
2019-01-06T01:25:45.573Z,424.05
2019-01-06T01:26:48.508Z,423.32
2019-01-06T01:27:45.555Z,421.74
2019-01-06T01:28:45.556Z,422.39
2019-01-06T01:29:45.528Z,422.83
2019-01-06T01:30:45.529Z,421.77
2019-01-06T01:31:45.504Z,421.77
2019-01-06T01:32:46.043Z,422.32
2019-01-06T01:33:45.518Z,422.91
2019-01-06T01:34:45.492Z,421.08
2019-01-06T01:35:45.494Z,423.56
2019-01-06T01:36:45.472Z,422.85
2019-01-06T01:37:45.518Z,421.70
2019-01-06T01:38:45.452Z,422.45
2019-01-06T01:39:45.441Z,421.01
2019-01-06T01:40:45.428Z,421.53
2019-01-06T01:41:45.446Z,420.16
2019-01-06T01:42:45.517Z,420.89
2019-01-06T01:43:45.435Z,421.10
2019-01-06T01:44:45.386Z,422.76
2019-01-06T01:45:45.433Z,421.00
2019-01-06T01:46:45.344Z,420.67
2019-01-06T01:47:45.377Z,421.18
2019-01-06T01:48:45.349Z,423.02
2019-01-06T01:49:45.347Z,421.20
2019-01-06T01:50:45.323Z,420.37
2019-01-06T01:51:45.357Z,421.92
2019-01-06T01:52:45.322Z,422.53
2019-01-06T01:53:45.352Z,422.15
2019-01-06T01:54:45.330Z,424.42
2019-01-06T01:55:45.340Z,420.90
2019-01-06T01:56:45.249Z,420.50
2019-01-06T01:57:45.260Z,422.54
2019-01-06T01:58:45.255Z,422.78
2019-01-06T01:59:45.247Z,420.66
2019-01-06T02:00:45.255Z,421.71
2019-01-06T02:01:45.205Z,421.18
2019-01-06T02:02:45.188Z,423.63
2019-01-06T02:03:45.213Z,420.33
2019-01-06T02:04:45.174Z,420.30
2019-01-06T02:05:45.228Z,420.61
2019-01-06T02:06:45.162Z,420.32
2019-01-06T02:07:45.166Z,420.72
2019-01-06T02:08:45.168Z,421.01
2019-01-06T02:09:45.146Z,421.01
2019-01-06T02:10:45.124Z,421.11
2019-01-06T02:11:45.101Z,419.79
2019-01-06T02:12:45.124Z,420.84
2019-01-06T02:13:45.255Z,423.99
2019-01-06T02:14:45.144Z,421.39
2019-01-06T02:15:45.123Z,420.76
2019-01-06T02:16:45.055Z,421.03
2019-01-06T02:17:45.045Z,421.00
2019-01-06T02:18:45.043Z,420.62
2019-01-06T02:19:45.034Z,422.14
2019-01-06T02:20:45.077Z,420.84
2019-01-06T02:21:45.030Z,420.45
2019-01-06T02:22:44.989Z,421.11
2019-01-06T02:23:44.972Z,420.05
2019-01-06T02:24:44.947Z,420.20
2019-01-06T02:25:44.999Z,420.98
2019-01-06T02:26:44.969Z,420.64
2019-01-06T02:27:44.916Z,420.49
2019-01-06T02:28:44.918Z,421.61
2019-01-06T02:29:44.915Z,420.05
2019-01-06T02:30:44.942Z,421.58
2019-01-06T02:31:44.906Z,422.48
2019-01-06T02:32:44.895Z,421.84
2019-01-06T02:33:44.876Z,420.21
2019-01-06T02:34:44.870Z,419.72
2019-01-06T02:35:44.858Z,420.76
2019-01-06T02:36:44.897Z,419.92
2019-01-06T02:37:44.825Z,421.55
2019-01-06T02:38:54.047Z,422.29
2019-01-06T02:39:54.093Z,421.68
2019-01-06T02:40:53.118Z,421.34
2019-01-06T02:41:44.777Z,419.45
2019-01-06T02:42:53.656Z,420.96
2019-01-06T02:43:44.766Z,420.26
2019-01-06T02:44:44.740Z,420.16
2019-01-06T02:45:44.740Z,420.77
2019-01-06T02:46:44.746Z,420.57
2019-01-06T02:47:44.762Z,421.04
2019-01-06T02:48:44.698Z,420.67
2019-01-06T02:49:54.591Z,422.34
2019-01-06T02:50:44.712Z,423.93
2019-01-06T02:51:44.793Z,420.74
2019-01-06T02:52:44.687Z,421.73
2019-01-06T02:53:44.673Z,420.30
2019-01-06T02:54:44.664Z,419.26
2019-01-06T02:55:44.646Z,422.99
2019-01-06T02:56:44.676Z,420.49
2019-01-06T02:57:44.661Z,421.51
2019-01-06T02:58:44.642Z,420.33
2019-01-06T02:59:44.693Z,422.70
2019-01-06T03:00:44.647Z,422.51
2019-01-06T03:01:44.603Z,420.73
2019-01-06T03:02:44.637Z,420.12
2019-01-06T03:03:44.611Z,419.96
2019-01-06T03:04:44.797Z,421.29
2019-01-06T03:05:44.581Z,421.23
2019-01-06T03:06:44.632Z,422.27
2019-01-06T03:07:44.557Z,420.79
2019-01-06T03:08:44.543Z,422.07
2019-01-06T03:09:44.560Z,420.90
2019-01-06T03:10:44.493Z,420.38
2019-01-06T03:11:44.529Z,422.68
2019-01-06T03:12:44.510Z,421.65
2019-01-06T03:13:44.454Z,420.49
2019-01-06T03:14:44.442Z,421.55
2019-01-06T03:15:44.470Z,424.17
2019-01-06T03:16:44.449Z,420.59
2019-01-06T03:17:44.448Z,422.67
2019-01-06T03:18:44.410Z,423.72
2019-01-06T03:19:44.400Z,423.49
2019-01-06T03:20:44.409Z,420.45
2019-01-06T03:21:44.371Z,419.69
2019-01-06T03:22:44.517Z,423.39
2019-01-06T03:23:44.357Z,421.08
2019-01-06T03:24:44.376Z,421.83
2019-01-06T03:25:44.384Z,423.15
2019-01-06T03:26:44.351Z,420.92
2019-01-06T03:27:44.350Z,423.03
2019-01-06T03:28:44.380Z,422.45
2019-01-06T03:29:44.298Z,420.49
2019-01-06T03:30:44.368Z,422.41
2019-01-06T03:31:44.329Z,423.75
2019-01-06T03:32:44.257Z,419.71
2019-01-06T03:33:44.318Z,421.54
2019-01-06T03:34:44.266Z,421.90
2019-01-06T03:35:44.277Z,420.55
2019-01-06T03:36:44.266Z,421.97
2019-01-06T03:37:44.218Z,421.00
2019-01-06T03:38:44.229Z,421.38
2019-01-06T03:39:44.192Z,420.12
2019-01-06T03:40:44.172Z,420.22
2019-01-06T03:41:44.206Z,420.06
2019-01-06T03:42:44.165Z,423.09
2019-01-06T03:43:44.165Z,420.24
2019-01-06T03:44:44.174Z,423.58
2019-01-06T03:45:44.220Z,420.78
2019-01-06T03:46:44.164Z,419.19
2019-01-06T03:47:44.144Z,420.30
2019-01-06T03:48:44.630Z,421.95
2019-01-06T03:49:44.208Z,420.19
2019-01-06T03:50:44.187Z,420.93
2019-01-06T03:51:44.125Z,421.85
2019-01-06T03:52:44.134Z,421.29
2019-01-06T03:53:44.100Z,421.10
2019-01-06T03:54:44.066Z,419.58
2019-01-06T03:55:44.048Z,420.48
2019-01-06T03:56:44.075Z,420.04
2019-01-06T03:57:44.105Z,420.44
2019-01-06T03:58:44.043Z,420.05
2019-01-06T03:59:44.011Z,419.42
2019-01-06T04:00:44.057Z,420.04
2019-01-06T04:01:44.022Z,419.65
2019-01-06T04:02:44.006Z,421.18
2019-01-06T04:03:43.947Z,422.10
2019-01-06T04:04:43.927Z,422.60
2019-01-06T04:05:43.963Z,421.55
2019-01-06T04:06:43.966Z,421.13
2019-01-06T04:07:43.889Z,420.64
2019-01-06T04:08:43.880Z,420.72
2019-01-06T04:09:43.864Z,420.93
2019-01-06T04:10:43.897Z,422.05
2019-01-06T04:11:43.839Z,421.13
2019-01-06T04:12:43.934Z,421.19
2019-01-06T04:13:43.883Z,420.94
2019-01-06T04:14:53.369Z,420.38
2019-01-06T04:17:02.472Z,419.29
2019-01-06T04:19:13.682Z,419.15
2019-01-06T04:22:37.165Z,419.83
2019-01-06T04:23:37.102Z,421.33
2019-01-06T04:24:45.908Z,421.73
2019-01-06T04:25:48.491Z,421.66
2019-01-06T04:26:37.076Z,420.95
2019-01-06T04:27:37.161Z,421.48
2019-01-06T04:28:37.058Z,422.22
2019-01-06T04:29:37.004Z,422.09
2019-01-06T04:30:37.079Z,423.17
2019-01-06T04:31:37.201Z,421.23
2019-01-06T04:32:36.981Z,421.61
2019-01-06T04:33:36.987Z,420.76
2019-01-06T04:34:36.984Z,423.18
2019-01-06T04:35:46.888Z,421.40
2019-01-06T04:36:36.913Z,422.00
2019-01-06T04:37:36.907Z,420.46
2019-01-06T04:38:36.889Z,421.38
2019-01-06T04:39:36.871Z,420.69
2019-01-06T04:40:36.861Z,421.19
2019-01-06T04:41:36.873Z,419.98
2019-01-06T04:42:36.843Z,419.85
2019-01-06T04:43:36.826Z,421.92
2019-01-06T04:44:36.819Z,419.75
2019-01-06T04:45:36.809Z,420.53
2019-01-06T04:46:36.829Z,420.45
2019-01-06T04:47:36.790Z,420.37
2019-01-06T04:48:36.798Z,419.25
2019-01-06T04:49:36.777Z,421.71
2019-01-06T04:50:36.923Z,421.52
2019-01-06T04:51:36.763Z,420.42
2019-01-06T04:52:36.785Z,420.22
2019-01-06T04:53:36.769Z,419.87
2019-01-06T04:54:36.718Z,420.87
2019-01-06T04:55:36.713Z,419.69
2019-01-06T04:56:36.702Z,420.78
2019-01-06T04:57:36.712Z,421.06
2019-01-06T04:58:36.759Z,419.92
2019-01-06T04:59:36.705Z,423.14
2019-01-06T05:00:36.678Z,421.54
2019-01-06T05:01:36.675Z,419.17
2019-01-06T05:02:36.676Z,422.62
2019-01-06T05:03:36.660Z,420.15
2019-01-06T05:04:37.315Z,423.70
2019-01-06T05:05:36.623Z,420.33
2019-01-06T05:06:36.610Z,420.34
2019-01-06T05:07:36.608Z,421.55
2019-01-06T05:08:36.645Z,419.54
2019-01-06T05:09:36.579Z,421.41
2019-01-06T05:10:36.622Z,421.04
2019-01-06T05:11:36.610Z,419.84
2019-01-06T05:12:36.561Z,419.31
2019-01-06T05:13:36.557Z,419.96
2019-01-06T05:14:36.508Z,420.41
2019-01-06T05:15:36.513Z,420.36
2019-01-06T05:16:36.520Z,419.77
2019-01-06T05:17:36.494Z,420.66
2019-01-06T05:18:36.496Z,420.78
2019-01-06T05:19:36.502Z,423.53
2019-01-06T05:20:36.461Z,420.29
2019-01-06T05:21:36.456Z,421.06
2019-01-06T05:22:36.441Z,420.92
2019-01-06T05:23:36.424Z,419.89
2019-01-06T05:24:36.423Z,421.22
2019-01-06T05:25:36.428Z,420.32
2019-01-06T05:26:36.500Z,422.73
2019-01-06T05:27:36.374Z,419.92
2019-01-06T05:28:36.385Z,421.15
2019-01-06T05:29:36.360Z,420.40
2019-01-06T05:30:36.361Z,421.68
2019-01-06T05:31:36.345Z,420.86
2019-01-06T05:32:36.333Z,421.01
2019-01-06T05:33:36.327Z,419.75
2019-01-06T05:34:36.329Z,420.77
2019-01-06T05:35:36.353Z,420.49
2019-01-06T05:36:36.304Z,420.49
2019-01-06T05:37:36.293Z,420.88
2019-01-06T05:38:36.275Z,420.95
2019-01-06T05:39:36.271Z,420.65
2019-01-06T05:40:36.270Z,421.13
2019-01-06T05:41:36.249Z,420.20
2019-01-06T05:42:36.229Z,420.89
2019-01-06T05:43:36.219Z,420.94
2019-01-06T05:44:45.414Z,420.33
2019-01-06T05:45:44.954Z,420.03
2019-01-06T05:46:43.713Z,422.94
2019-01-06T05:47:45.563Z,422.14
2019-01-06T05:48:36.185Z,420.18
2019-01-06T05:49:36.180Z,421.30
2019-01-06T05:50:36.139Z,420.56
2019-01-06T05:51:36.158Z,421.93
2019-01-06T05:52:36.128Z,420.64
2019-01-06T05:53:36.117Z,420.24
2019-01-06T05:54:36.117Z,419.25
2019-01-06T05:55:36.097Z,421.05
2019-01-06T05:56:36.104Z,420.54
2019-01-06T05:57:36.082Z,422.36
2019-01-06T05:58:36.059Z,420.74
2019-01-06T05:59:36.060Z,421.10
2019-01-06T06:00:36.053Z,422.02
2019-01-06T06:01:36.063Z,422.10
2019-01-06T06:02:36.024Z,421.02
2019-01-06T06:03:36.016Z,421.84
2019-01-06T06:04:35.999Z,422.10
2019-01-06T06:05:35.994Z,421.70
2019-01-06T06:06:36.035Z,422.69
2019-01-06T06:07:35.988Z,420.55
2019-01-06T06:08:35.953Z,420.73
2019-01-06T06:09:35.955Z,420.76
2019-01-06T06:10:35.936Z,420.06
2019-01-06T06:11:35.928Z,420.38
2019-01-06T06:12:35.939Z,420.73
2019-01-06T06:13:35.920Z,420.15
2019-01-06T06:14:35.987Z,421.27
2019-01-06T06:15:35.894Z,420.59
2019-01-06T06:16:35.883Z,421.01
2019-01-06T06:17:35.897Z,420.08
2019-01-06T06:18:35.899Z,420.22
2019-01-06T06:19:35.874Z,420.82
2019-01-06T06:20:35.883Z,420.65
2019-01-06T06:21:35.838Z,422.98
2019-01-06T06:22:35.839Z,421.24
2019-01-06T06:23:47.066Z,421.27
2019-01-06T06:24:35.821Z,420.55
2019-01-06T06:25:35.795Z,420.97
2019-01-06T06:26:35.781Z,421.69
2019-01-06T06:27:35.775Z,421.22
2019-01-06T06:28:35.777Z,421.06
2019-01-06T06:29:45.092Z,421.33
2019-01-06T06:30:35.781Z,419.47
2019-01-06T06:31:35.730Z,420.16
2019-01-06T06:32:35.768Z,421.08
2019-01-06T06:33:35.732Z,420.73
2019-01-06T06:34:35.696Z,422.21
2019-01-06T06:35:36.571Z,422.62
2019-01-06T06:36:35.670Z,421.00
2019-01-06T06:37:35.675Z,420.49
2019-01-06T06:38:35.662Z,421.45
2019-01-06T06:39:35.658Z,420.57
2019-01-06T06:40:35.731Z,420.62
2019-01-06T06:41:35.625Z,420.45
2019-01-06T06:42:35.824Z,420.17
2019-01-06T06:43:35.649Z,420.16
2019-01-06T06:44:35.618Z,421.65
2019-01-06T06:45:35.629Z,421.50
2019-01-06T06:46:35.631Z,420.85
2019-01-06T06:47:40.869Z,420.09
2019-01-06T06:48:35.674Z,420.93
2019-01-06T06:49:35.582Z,421.32
2019-01-06T06:50:35.555Z,420.22
2019-01-06T06:51:35.547Z,420.00
2019-01-06T06:52:35.546Z,420.18
2019-01-06T06:53:38.533Z,419.99
2019-01-06T06:54:35.556Z,419.98
2019-01-06T06:55:35.505Z,419.92
2019-01-06T06:56:35.726Z,420.32
2019-01-06T06:57:35.532Z,420.02
2019-01-06T06:58:35.476Z,421.40
2019-01-06T06:59:35.476Z,422.50
2019-01-06T07:00:36.032Z,420.99
2019-01-06T07:01:35.444Z,421.41
2019-01-06T07:02:35.442Z,420.51
2019-01-06T07:03:35.429Z,420.73
2019-01-06T07:04:35.434Z,420.71
2019-01-06T07:05:35.484Z,420.38
2019-01-06T07:06:35.451Z,421.84
2019-01-06T07:07:35.387Z,420.02
2019-01-06T07:08:35.431Z,420.81
2019-01-06T07:09:35.376Z,420.07
2019-01-06T07:10:35.369Z,421.17
2019-01-06T07:11:35.399Z,420.33
2019-01-06T07:12:35.357Z,419.78
2019-01-06T07:13:45.651Z,420.35
2019-01-06T07:14:35.288Z,420.04
2019-01-06T07:15:44.683Z,420.09
2019-01-06T07:16:45.278Z,420.36
2019-01-06T07:17:46.797Z,420.70
2019-01-06T07:18:44.803Z,420.96
2019-01-06T07:19:44.317Z,419.77
2019-01-06T07:20:35.371Z,421.43
2019-01-06T07:21:35.246Z,420.38
2019-01-06T07:22:35.284Z,420.37
2019-01-06T07:23:35.225Z,421.00
2019-01-06T07:24:35.237Z,419.41
2019-01-06T07:25:35.272Z,421.19
2019-01-06T07:26:35.178Z,420.46
2019-01-06T07:27:35.197Z,420.76
2019-01-06T07:28:35.186Z,420.88
2019-01-06T07:29:44.362Z,421.92
2019-01-06T07:30:35.117Z,421.54
2019-01-06T07:31:35.113Z,420.64
2019-01-06T07:32:35.109Z,421.86
2019-01-06T07:33:35.124Z,422.14
2019-01-06T07:34:35.094Z,421.07
2019-01-06T07:35:35.110Z,420.63
2019-01-06T07:36:35.080Z,420.29
2019-01-06T07:37:35.044Z,421.34
2019-01-06T07:38:35.061Z,420.56
2019-01-06T07:39:35.027Z,422.02
2019-01-06T07:40:35.032Z,421.09
2019-01-06T07:41:35.036Z,421.50
2019-01-06T07:42:35.008Z,420.95
2019-01-06T07:43:34.988Z,420.76
2019-01-06T07:44:34.997Z,420.77
2019-01-06T07:45:34.996Z,420.86
2019-01-06T07:46:35.002Z,420.38
2019-01-06T07:47:34.951Z,421.29
2019-01-06T07:48:34.947Z,420.55
2019-01-06T07:49:35.092Z,421.81
2019-01-06T07:50:34.918Z,422.04
2019-01-06T07:51:34.905Z,422.16
2019-01-06T07:52:34.910Z,421.37
2019-01-06T07:53:34.887Z,421.99
2019-01-06T07:54:34.882Z,420.87
2019-01-06T07:55:34.945Z,423.42
2019-01-06T07:56:34.883Z,423.23
2019-01-06T07:57:34.856Z,420.69
2019-01-06T07:58:34.852Z,420.72
2019-01-06T07:59:34.846Z,422.61
2019-01-06T08:00:34.868Z,422.56
2019-01-06T08:01:34.801Z,421.38
2019-01-06T08:02:34.816Z,421.88
2019-01-06T08:03:34.793Z,421.69
2019-01-06T08:04:34.806Z,421.43
2019-01-06T08:05:34.811Z,419.92
2019-01-06T08:06:34.766Z,421.41
2019-01-06T08:07:34.770Z,421.54
2019-01-06T08:08:34.739Z,422.79
2019-01-06T08:09:34.720Z,422.00
2019-01-06T08:10:34.727Z,421.35
2019-01-06T08:11:34.695Z,420.85
2019-01-06T08:12:34.697Z,422.45
2019-01-06T08:13:34.702Z,422.28
2019-01-06T08:14:34.704Z,421.51
2019-01-06T08:15:34.672Z,420.14
2019-01-06T08:16:34.653Z,421.58
2019-01-06T08:17:34.640Z,424.04
2019-01-06T08:18:34.646Z,421.83
2019-01-06T08:19:34.656Z,422.12
2019-01-06T08:20:34.600Z,423.93
2019-01-06T08:21:34.678Z,422.26
2019-01-06T08:22:34.591Z,421.77
2019-01-06T08:23:34.593Z,421.51
2019-01-06T08:24:34.583Z,421.20
2019-01-06T08:25:34.581Z,421.30
2019-01-06T08:26:34.542Z,421.38
2019-01-06T08:27:34.535Z,421.05
2019-01-06T08:28:34.592Z,422.72
2019-01-06T08:29:34.521Z,421.69
2019-01-06T08:30:34.495Z,422.25
2019-01-06T08:31:34.521Z,422.50
2019-01-06T08:32:34.484Z,421.05
2019-01-06T08:33:34.465Z,422.71
2019-01-06T08:34:34.470Z,421.17
2019-01-06T08:35:34.455Z,422.61
2019-01-06T08:36:34.439Z,422.40
2019-01-06T08:37:34.468Z,421.95
2019-01-06T08:38:34.417Z,421.60
2019-01-06T08:39:34.452Z,420.90
2019-01-06T08:40:34.398Z,422.23
2019-01-06T08:41:34.429Z,420.71
2019-01-06T08:42:34.371Z,421.62
2019-01-06T08:43:34.360Z,421.19
2019-01-06T08:44:34.351Z,421.45
2019-01-06T08:45:34.451Z,420.99
2019-01-06T08:46:34.338Z,421.75
2019-01-06T08:47:34.331Z,421.43
2019-01-06T08:48:34.333Z,422.15
2019-01-06T08:49:34.345Z,421.79
2019-01-06T08:50:43.432Z,422.49
2019-01-06T08:51:34.301Z,421.87
2019-01-06T08:52:34.276Z,422.75
2019-01-06T08:53:34.300Z,421.36
2019-01-06T08:54:34.281Z,421.52
2019-01-06T08:55:34.260Z,421.60
2019-01-06T08:56:34.242Z,422.46
2019-01-06T08:57:34.231Z,422.00
2019-01-06T08:58:34.216Z,421.31
2019-01-06T08:59:34.206Z,421.56
2019-01-06T09:00:34.217Z,421.51
2019-01-06T09:01:34.185Z,421.07
2019-01-06T09:02:34.189Z,422.01
2019-01-06T09:03:35.111Z,420.90
2019-01-06T09:04:34.196Z,423.27
2019-01-06T09:05:34.159Z,420.67
2019-01-06T09:06:34.163Z,422.32
2019-01-06T09:07:34.133Z,423.04
2019-01-06T09:08:34.114Z,423.80
2019-01-06T09:09:34.099Z,423.04
2019-01-06T09:10:34.137Z,421.99
2019-01-06T09:11:34.104Z,422.22
2019-01-06T09:12:34.078Z,421.84
2019-01-06T09:13:34.062Z,421.60
2019-01-06T09:14:34.084Z,422.38
2019-01-06T09:15:34.044Z,421.65
2019-01-06T09:16:34.193Z,422.04
2019-01-06T09:17:34.020Z,421.96
2019-01-06T09:18:34.020Z,422.04
2019-01-06T09:19:34.104Z,422.69
2019-01-06T09:20:33.991Z,421.29
2019-01-06T09:21:33.992Z,421.43
2019-01-06T09:22:34.024Z,421.42
2019-01-06T09:23:34.006Z,421.43
2019-01-06T09:24:34.007Z,421.31
2019-01-06T09:25:41.000Z,421.85
2019-01-06T09:26:34.964Z,421.62
2019-01-06T09:27:33.956Z,423.34
2019-01-06T09:28:33.912Z,422.92
2019-01-06T09:29:33.913Z,422.27
2019-01-06T09:30:33.918Z,423.30
2019-01-06T09:31:33.920Z,421.99
2019-01-06T09:32:33.912Z,422.10
2019-01-06T09:33:33.873Z,422.84
2019-01-06T09:34:33.861Z,422.63
2019-01-06T09:35:33.858Z,422.28
2019-01-06T09:36:33.855Z,423.87
2019-01-06T09:37:33.827Z,423.01
2019-01-06T09:38:33.840Z,424.30
2019-01-06T09:39:33.820Z,423.28
2019-01-06T09:40:33.794Z,423.01
2019-01-06T09:41:33.786Z,423.54
2019-01-06T09:42:33.780Z,423.10
2019-01-06T09:43:33.793Z,422.47
2019-01-06T09:44:33.762Z,423.17
2019-01-06T09:45:33.729Z,422.17
2019-01-06T09:46:33.727Z,422.83
2019-01-06T09:47:33.753Z,423.05
2019-01-06T09:48:33.750Z,422.29
2019-01-06T09:49:33.697Z,421.66
2019-01-06T09:50:33.721Z,422.68
2019-01-06T09:51:33.683Z,422.29
2019-01-06T09:52:33.662Z,422.66
2019-01-06T09:53:33.691Z,423.38
2019-01-06T09:54:33.635Z,423.27
2019-01-06T09:55:33.633Z,423.23
2019-01-06T09:56:33.628Z,423.58
2019-01-06T09:57:33.600Z,421.87
2019-01-06T09:58:33.613Z,422.17
2019-01-06T09:59:33.667Z,423.78
2019-01-06T10:00:33.607Z,423.25
2019-01-06T10:01:33.582Z,422.75
2019-01-06T10:02:33.573Z,424.43
2019-01-06T10:03:33.558Z,422.88
2019-01-06T10:04:35.199Z,423.69
2019-01-06T10:05:33.539Z,422.90
2019-01-06T10:06:33.526Z,423.13
2019-01-06T10:07:33.565Z,422.91
2019-01-06T10:08:42.941Z,422.33
2019-01-06T10:09:43.466Z,421.68
2019-01-06T10:10:43.993Z,422.29
2019-01-06T10:11:33.549Z,422.51
2019-01-06T10:12:42.559Z,423.12
2019-01-06T10:13:42.579Z,423.50
2019-01-06T10:14:33.434Z,422.75
2019-01-06T10:15:33.445Z,422.61
2019-01-06T10:16:33.406Z,422.63
2019-01-06T10:17:33.401Z,423.06
2019-01-06T10:18:33.383Z,423.28
2019-01-06T10:19:33.391Z,422.98
2019-01-06T10:20:33.445Z,422.91
2019-01-06T10:21:33.359Z,425.88
2019-01-06T10:22:33.366Z,422.94
2019-01-06T10:23:33.361Z,423.22
2019-01-06T10:24:42.617Z,423.06
2019-01-06T10:25:35.540Z,422.83
2019-01-06T10:26:33.371Z,423.56
2019-01-06T10:27:34.261Z,423.91
2019-01-06T10:28:35.600Z,423.79
2019-01-06T10:29:33.287Z,423.90
2019-01-06T10:30:34.044Z,422.99
2019-01-06T10:31:33.320Z,421.79
2019-01-06T10:32:33.415Z,423.57
2019-01-06T10:33:33.390Z,423.08
2019-01-06T10:34:33.281Z,422.78
2019-01-06T10:35:36.697Z,422.59
2019-01-06T10:36:33.221Z,422.28
2019-01-06T10:37:33.323Z,423.69
2019-01-06T10:38:33.343Z,422.70
2019-01-06T10:39:34.949Z,423.73
2019-01-06T10:40:36.043Z,422.44
2019-01-06T10:41:33.190Z,422.60
2019-01-06T10:42:33.179Z,423.13
2019-01-06T10:43:34.050Z,423.12
2019-01-06T10:44:34.064Z,423.88
2019-01-06T10:45:33.156Z,422.08
2019-01-06T10:46:33.156Z,423.73
2019-01-06T10:47:34.147Z,423.26
2019-01-06T10:48:33.103Z,422.60
2019-01-06T10:49:33.082Z,422.38
2019-01-06T10:50:35.545Z,425.02
2019-01-06T10:51:33.053Z,423.23
2019-01-06T10:52:33.057Z,423.42
2019-01-06T10:53:33.133Z,423.71
2019-01-06T10:54:33.717Z,424.49
2019-01-06T10:55:33.100Z,424.00
2019-01-06T10:56:33.020Z,424.35
2019-01-06T10:57:33.157Z,424.92
2019-01-06T10:58:32.985Z,425.58
2019-01-06T10:59:33.619Z,422.99
2019-01-06T11:00:33.030Z,423.81
2019-01-06T11:01:33.619Z,424.18
2019-01-06T11:02:32.925Z,423.20
2019-01-06T11:03:32.918Z,423.50
2019-01-06T11:04:32.931Z,423.19
2019-01-06T11:05:34.679Z,423.46
2019-01-06T11:06:32.909Z,422.66
2019-01-06T11:07:32.893Z,424.07
2019-01-06T11:08:32.877Z,422.94
2019-01-06T11:09:33.552Z,423.18
2019-01-06T11:10:32.887Z,423.36
2019-01-06T11:11:32.842Z,424.64
2019-01-06T11:12:32.947Z,422.74
2019-01-06T11:13:33.549Z,423.52
2019-01-06T11:14:32.988Z,422.30
2019-01-06T11:15:33.285Z,424.66
2019-01-06T11:16:32.776Z,423.28
2019-01-06T11:17:32.835Z,423.51
2019-01-06T11:18:33.835Z,423.27
2019-01-06T11:19:32.785Z,423.63
2019-01-06T11:20:32.749Z,424.38
2019-01-06T11:21:32.794Z,424.74
2019-01-06T11:22:32.749Z,426.13
2019-01-06T11:23:32.752Z,425.71
2019-01-06T11:24:32.855Z,424.57
2019-01-06T11:25:32.761Z,423.58
2019-01-06T11:26:32.739Z,422.56
2019-01-06T11:27:32.850Z,424.30
2019-01-06T11:28:32.752Z,426.10
2019-01-06T11:29:32.862Z,427.79
2019-01-06T11:30:32.676Z,426.54
2019-01-06T11:31:32.680Z,424.82
2019-01-06T11:32:32.677Z,423.52
2019-01-06T11:33:32.703Z,425.42
2019-01-06T11:34:32.612Z,426.23
2019-01-06T11:35:32.592Z,426.92
2019-01-06T11:36:32.668Z,428.24
2019-01-06T11:37:32.570Z,425.32
2019-01-06T11:38:32.546Z,424.56
2019-01-06T11:39:32.533Z,423.90
2019-01-06T11:40:32.524Z,423.95
2019-01-06T11:41:32.570Z,424.02
2019-01-06T11:42:32.553Z,425.35
2019-01-06T11:43:32.510Z,424.68
2019-01-06T11:44:32.480Z,424.57
2019-01-06T11:45:32.676Z,424.57
2019-01-06T11:46:32.468Z,422.37
2019-01-06T11:47:33.063Z,423.19
2019-01-06T11:48:32.461Z,424.28
2019-01-06T11:49:32.444Z,423.70
2019-01-06T11:50:33.054Z,424.23
2019-01-06T11:51:33.126Z,424.17
2019-01-06T11:52:32.575Z,425.23
2019-01-06T11:53:32.515Z,425.24
2019-01-06T11:54:32.392Z,424.69
2019-01-06T11:55:32.558Z,424.66
2019-01-06T11:56:33.055Z,423.02
2019-01-06T11:57:32.613Z,424.58
2019-01-06T11:58:33.579Z,424.02
2019-01-06T11:59:33.143Z,424.63
2019-01-06T12:00:32.328Z,425.90
2019-01-06T12:01:32.311Z,422.80
2019-01-06T12:02:39.027Z,424.33
2019-01-06T12:03:33.333Z,423.68
2019-01-06T12:04:32.293Z,424.01
2019-01-06T12:05:32.285Z,424.65
2019-01-06T12:06:32.298Z,423.09
2019-01-06T12:07:32.375Z,423.73
2019-01-06T12:08:40.594Z,424.06
2019-01-06T12:09:33.270Z,424.20
2019-01-06T12:10:33.056Z,423.85
2019-01-06T12:11:32.308Z,424.06
2019-01-06T12:12:33.222Z,423.61
2019-01-06T12:13:33.118Z,423.61
2019-01-06T12:14:32.408Z,423.27
2019-01-06T12:15:32.160Z,425.26
2019-01-06T12:16:32.161Z,423.47
2019-01-06T12:17:32.158Z,424.25
2019-01-06T12:18:32.293Z,423.93
2019-01-06T12:19:33.814Z,423.60
2019-01-06T12:20:32.118Z,424.74
2019-01-06T12:21:33.130Z,424.24
2019-01-06T12:22:32.096Z,423.93
2019-01-06T12:23:32.563Z,424.42
2019-01-06T12:24:33.556Z,426.08
2019-01-06T12:25:32.584Z,425.17
2019-01-06T12:26:32.643Z,424.69
2019-01-06T12:27:32.151Z,424.17
2019-01-06T12:28:32.251Z,423.83
2019-01-06T12:29:33.112Z,423.73
2019-01-06T12:30:32.055Z,424.28
2019-01-06T12:31:32.109Z,423.26
2019-01-06T12:32:33.562Z,423.24
2019-01-06T12:33:32.560Z,424.95